WIT weather

Wittenoom Airport
Western Australia, Australia

Public forecast

Using degrees Celsius for public forecast. Weather courtesy of forecast.io.

METAR (pilot weather report)

Closest report is Paraburdoo Airport, 66.2 nm (122.7 km) SSW. Retrieved 2019/03/26 22:00 UTC (46 minutes ago):

YPBO 262200Z AUTO 05005KT 9999 // SCT083 26/20 Q1014

TAF (pilot weather forecast)

Closest forecast is Port Hedland International Airport, 111.6 nm (206.7 km) N. Retrieved 2019/03/26 18:36 UTC (4 hours ago):

TAF YPPD 261703Z 2618/2718 VRB03KT CAVOK FM262200 VRB05KT 9999 SCT020 FM270500 30012KT CAVOK PROB30 2618/2623 0300 FG